San Diego Classic - Holiday Cup - Clocking Inventory

Station: INVENTORY - T Race

Distance: 10 Miles    

Release: 06-Dec-2018 09:00

Weather Release:    Arrival:

Wind at Release:     Wind at Arrival:

Temp at Release: °    Temp at Arrival: °

Lofts: 101

Birds: 176

Clocked: 174

Good Luck to Everyone!
Drops Pos Breeder Pigeon Name Color Sex Ent Arrival Speed To Win Eligible RaceAvg Speed
1 Nemeth Family Loft - CA 0846-AU18-BON DC H 1 09:11:06.70 1583.921 00:00:00 Yes
2 Lillie & Cecil - CA 1877-AU18-WEBE Fe DC H 1 09:11:09.90 1576.355 00:00:03 Yes
3 Tim Brandon - CA 0358-AU18-LAP BB H 1 09:11:10.90 1574.005 00:00:04 Yes
4 Bill Wieland Loft - BC 1931-CU18-WCW BB H 1 09:11:13.60 1567.696 00:00:07 Yes
5 Los Barneros - CA 0719-AU18-SEL BB H 1 09:11:13.90 1566.998 00:00:07 Yes
6 C & D Loft - CA 0978-AU18-PAL BCWF H 1 09:11:14.90 1564.676 00:00:08 Yes
7 C P C A Syndicate - AZ 0588-AU18-SLI BBWF H 1 09:11:15.40 1563.518 00:00:09 Yes
8 English Syndicate - UK 18071-AU18-MET DC H 1 09:11:15.90 1562.361 00:00:09 Yes
9 Utaz Team - UT 0198-AU18-PSC 3068-1009 BC H 1 09:11:18.60 1556.145 00:00:12 Yes
10 C & D Loft - CA 0963-AU18-PAL BB H 2 09:11:30.70 1528.884 00:00:24 Yes
11 Manzo Loft - CA 0070-AU18-FVC BB H 1 09:12:06.10 1454.345 00:00:59 Yes
12 Mcconnell Loft - FL 10132-AU18-GHC BB H 1 09:12:06.50 1453.544 00:01:00 Yes
13 Nemelka Racing Pigeon Loft - UT 8128-AU18-NRPL deBelsar2 x Splendiferous BB C 1 09:12:07.70 1451.147 00:01:01 Yes
14 Utaz Team - UT 1316-AU18-DUTC 9489-1307 BC H 2 09:12:09.30 1447.964 00:01:03 Yes
15 Sandstrom Brothers Loft - MN 0938-AU18-SBL BB H 1 09:12:11.50 1443.609 00:01:05 Yes
16 Lillie & Cecil - CA 1882-AU18-WEBE Labios Compartidos BC C 2 09:12:12.00 1442.623 00:01:05 Yes
17 Quest Syndicate - TX 18055-AU18-QS BB H 1 09:12:23.50 1420.309 00:01:17 Yes
18 Rick Barker - CA 0224-AU18-VIP BB H 1 09:12:24.00 1419.355 00:01:17 Yes
19 Tom Cano Family - CA 0847-AU18-SD BBWF H 1 09:12:24.70 1418.021 00:01:18 Yes
20 El Dorado Lofts Canada - BC 11633-CU18-CRPU BCSP H 1 09:12:25.10 1417.259 00:01:18 Yes
21 Flying D Loft - TX 0736-AU18-FLYD BB H 1 09:12:25.50 1416.499 00:01:19 Yes
22 Pacos Lofts - CA 0870-AU18-PACO DK H 1 09:12:25.90 1415.739 00:01:19 Yes
22 Alan Taylor - UT 0635-AU18-UVI BB H 1 09:12:25.90 1415.739 00:01:19 Yes
24 Wayne Herron - CA 0120-AU18-SD BBPD H 1 09:12:26.40 1414.791 00:01:20 Yes
24 Tom Cano Family - CA 0829-AU18-SD BB H 2 09:12:26.40 1414.791 00:01:20 Yes
26 John Karnofel - CA 0884-AU18-KFL Ms Dixie BB H 1 09:12:27.00 1413.655 00:01:20 Yes
27 Sandstrom Brothers Loft - MN 0952-AU18-SBL DCPD H 2 09:12:28.70 1410.445 00:01:22 Yes
27 Transilvania Loft - NV 9432-AU18-JEDD DKSP H 1 09:12:28.70 1410.445 00:01:22 Yes
29 Sandstrom Brothers Loft - MN 0386-AU18-GJC BC H 3 09:12:29.50 1408.939 00:01:23 Yes
30 Lillie & Cecil - CA 1821-AU18-WEBE Bendita Tu Luz BB H 3 09:12:30.00 1408.000 00:01:23 Yes
30 Carlton Kroese-Crazy Al - CO 5311-AU18-CRAZ BB H 1 09:12:30.00 1408.000 00:01:23 Yes
32 Two-Be-Won - NV 18012-AU18-TBW 15006-15007 BB H 1 09:12:30.40 1407.249 00:01:24 Yes
33 Humberto Munoz - EM 27148-AU18-MEX BB H 1 09:12:30.50 1407.062 00:01:24 Yes
34 English Syndicate - UK 27615-GB18-GBE BB H 2 09:12:31.10 1405.938 00:01:24 Yes
35 Garcia & Franco - CA 0015-AU18-Y2K BBWF H 1 09:12:31.60 1405.003 00:01:25 Yes
36 Transilvania Loft - NV 9447-AU18-JEDD BB H 2 09:12:32.00 1404.255 00:01:25 Yes
36 Milo Garver - CA 0931-AU18-SD BB H 1 09:12:32.00 1404.255 00:01:25 Yes
38 Humberto Munoz - EM 27147-AU18-MEX BB H 2 09:12:32.10 1404.069 00:01:25 Yes
38 C & D Loft - CA 0083-AU18-ROMO CHOC H 3 09:12:32.10 1404.069 00:01:25 Yes
40 Stephen Brothers - FL 0886-AU18-HICA BB H 1 09:12:32.90 1402.577 00:01:26 Yes
40 Desert Rose Loft - NV 4869-AU18-JEDD BB H 1 09:12:32.90 1402.577 00:01:26 Yes
42 Martha & Darwin Stork - CA 0127-AU18-Y2K BC H 1 09:12:33.30 1401.832 00:01:27 Yes
43 El Dorado Lofts Canada - BC 11692-CU18-CRPU BB H 2 09:12:33.40 1401.646 00:01:27 Yes
44 Y2k Team - CA 0185-AU18-Y2K BB H 1 09:12:33.80 1400.902 00:01:27 Yes
45 Hawaiian Express - CA 0011-AU18-HE BB H 1 09:12:33.90 1400.716 00:01:27 Yes
45 Flying D Loft - TX 0637-AU18-FLYD DCSP H 2 09:12:33.90 1400.716 00:01:27 Yes
47 Dan And Greg Coury - AZ 1541-AU18-DUTC 1152x871 BB H 1 09:12:34.60 1399.417 00:01:28 Yes
48 Barry Venn - WY 18258-AU18-VENN BC H 1 09:12:36.00 1396.825 00:01:29 Yes
48 J & M Partridge Loft - CA 1162-AU18-PASO BB H 1 09:12:36.00 1396.825 00:01:29 Yes
50 Utaz Team - UT 0463-AU18-SLI 6531x942 BC H 3 09:12:36.10 1396.641 00:01:29 Yes
51 Dave Shewmaker - CA 8149-AU18-SHEW BB H 1 09:12:36.40 1396.087 00:01:30 Yes
52 Tom Cano Family - CA 0865-AU18-SD BB H 3 09:12:36.50 1395.902 00:01:30 Yes
52 De La O-Lopez-Saenz - CA 0098-AU18-TCH BB H 1 09:12:36.50 1395.902 00:01:30 Yes
54 De La O-Lopez-Saenz - CA 2126-AU18-TCH BB H 2 09:12:37.00 1394.980 00:01:30 Yes
55 Quest Syndicate - TX 18065-AU18-QS BB H 2 09:12:37.80 1393.508 00:01:31 Yes
56 English Syndicate - UK 27610-GB18-GBE BB H 3 09:12:38.40 1392.405 00:01:32 Yes
57 Bill Dozier & Kincaid Light - TX 0097-AU18-TEX BCWF H 1 09:12:38.80 1391.671 00:01:32 Yes
57 Flying D Loft - TX 0729-AU18-FLYD DC H 3 09:12:38.80 1391.671 00:01:32 Yes
57 Team Omaha - NE 0173-AU18-WARR BB H 1 09:12:38.80 1391.671 00:01:32 Yes
60 Barry Venn - WY 18257-AU18-VENN BCSP H 2 09:12:39.20 1390.938 00:01:32 Yes
61 Dave Dudley/Ron Moden - CO 18018-AU18-DEHE BB H 1 09:12:39.80 1389.839 00:01:33 Yes
62 Four For More 2 - CA 1829-AU18-C7 BB H 1 09:12:40.10 1389.291 00:01:33 Yes
63 Flying D Loft - TX 0641-AU18-FLYD BB H 4 09:12:40.20 1389.108 00:01:34 Yes
64 Pairan Racing Loft - OH 0106-AU18-GUYS BB H 1 09:12:40.70 1388.195 00:01:34 Yes
65 Alma Missiles Castro - AZ 2724-AU18-MISS BBWF H 1 09:12:41.00 1387.648 00:01:34 Yes
66 Rick Barker - CA 0229-AU18-VIP BBWF H 2 09:12:41.70 1386.373 00:01:35 Yes
67 Jalisco - CA 2003-AU18-JALI BB H 1 09:12:42.20 1385.463 00:01:36 Yes
68 El Dorado Lofts Canada - BC 11621-CU18-CRPU BCWF H 3 09:12:43.80 1382.561 00:01:37 Yes
69 Avitron Loft - CA 1581-AU18-SD BC H 1 09:12:44.50 1381.295 00:01:38 Yes
70 Team Phoenix - AZ 23350-AU18-AA BB H 1 09:12:44.80 1380.753 00:01:38 Yes
71 Hawaiian Express - CA 0096-AU18-HE BB H 2 09:12:45.30 1379.851 00:01:39 Yes
72 Mesopotamia Loft - MN 6114-AU18-ARPU BB H 1 09:12:45.80 1378.950 00:01:39 Yes
72 Nemeth Family Loft - CA 0043-AU18-BON BBPD H 2 09:12:45.80 1378.950 00:01:39 Yes
74 Lamp Post Loft - CA 18076-AU18-JEDD BBSP H 1 09:12:45.90 1378.770 00:01:39 Yes
75 Missiles Castro - AZ 4324-AU18-MISS BCWF H 1 09:12:46.40 1377.871 00:01:40 Yes
76 De La O-Lopez-Saenz - CA 8075-AU18-COOK BB H 3 09:12:47.30 1376.254 00:01:41 Yes
76 Dan And Greg Coury - AZ 0201-AU18-DUTC 328x3550 BB H 2 09:12:47.30 1376.254 00:01:41 Yes
78 Mesopotamia Loft - MN 6195-AU18-ARPU DC H 2 09:12:47.90 1375.179 00:01:41 Yes
79 Dave Dudley/Ron Moden - CO 18062-AU18-PUEB BB H 2 09:12:48.60 1373.927 00:01:42 Yes
80 Nemeth Family Loft - CA 0839-AU18-BON DC H 3 09:12:48.90 1373.391 00:01:42 Yes
81 Manzo Loft - CA 0002-AU18-FVC BB H 2 09:12:49.40 1372.498 00:01:43 Yes
81 El Dorado Lofts Canada - BC 11618-CU18-CRPU BB H 4 09:12:49.40 1372.498 00:01:43 Yes
83 Irish Syndicate - AZ 0219-IF18-IS BCWF H 1 09:12:49.90 1371.607 00:01:43 Yes
83 Irma & Gene & Eddie - CA 0526-AU18-GEN BBWF H 1 09:12:49.90 1371.607 00:01:43 Yes
85 Desert Rose Loft - NV 4883-AU18-JEDD BB H 2 09:12:50.70 1370.183 00:01:44 Yes
86 John Hedderson - CA 0800-AU18-HEDD 6855x6853 BC H 1 09:12:51.80 1368.230 00:01:45 Yes
87 Wayne Herron - CA 0119-AU18-SD DC H 2 09:12:52.30 1367.344 00:01:46 Yes
88 Avitron Loft - CA 1502-AU18-SD BB H 2 09:12:53.00 1366.106 00:01:46 Yes
89 Steve Lance - CA 6222-AU18-COM BB H 1 09:12:53.60 1365.047 00:01:47 Yes
90 Avitron Loft - CA 1505-AU18-SD DC H 3 09:12:54.30 1363.812 00:01:48 Yes
91 Tim Brandon - CA 0449-AU18-OCF BC H 2 09:12:55.30 1362.053 00:01:49 Yes
91 Anthony Cuba - CA 2383-AU18-HP BBWF H 1 09:12:55.30 1362.053 00:01:49 Yes
93 Sandstrom Brothers Loft - MN 0399-AU18-GJC BC H 4 09:12:55.90 1361.000 00:01:49 Yes
94 Nemeth Family Loft - CA 0897-AU18-BON BB H 4 09:12:57.20 1358.724 00:01:50 Yes
94 Los Banditos - CA 0752-AU18-OAKS BC H 1 09:12:57.20 1358.724 00:01:50 Yes
96 Avitron Loft - CA 1503-AU18-SD DC H 4 09:12:57.30 1358.549 00:01:51 Yes
97 Dan And Greg Coury - AZ 0831-AU18-PEGA 41x693 DCWF H 3 09:12:57.90 1357.501 00:01:51 Yes
98 C & D Loft - CA 0982-AU18-PAL BC H 4 09:12:58.40 1356.629 00:01:52 Yes
99 George Macaluso - CA 19333-AU18-JEDD BB H 1 09:12:59.40 1354.888 00:01:53 Yes
100 New Generation Loft - CA 2024-AU18-JALI BB H 1 09:13:02.40 1349.693 00:01:56 Yes

There are 174 bird records

Note: These Race Results are unofficial and subject to change until verified by the Race Committee and declared final.